Time;durP1;ratioP1;P1;durP2;ratioP2;P2;SDS_P1;SDS_P2;PMS_P1;PMS_P2;Temp;Humidity;BMP_temperature;BMP_pressure;BME280_temperature;BME280_humidity;BME280_pressure;Samples;Min_cycle;Max_cycle;Signal;HPM_P1;HPM_P2
2020/12/13 00:00:13;;;;;;;23.88;12.32;;;;;;;6.74;65.01;100070.63;4882503;29;20060;-91
2020/12/13 00:02:40;;;;;;;23.50;12.90;;;;;;;3.24;64.41;99528.22;4885114;29;20083;-91
2020/12/13 00:05:07;;;;;;;25.25;12.65;;;;;;;4.44;64.44;99705.44;4880213;29;20509;-90
2020/12/13 00:07:34;;;;;;;23.20;12.50;;;;;;;5.73;64.88;99914.00;4879795;29;20432;-91
2020/12/13 00:10:00;;;;;;;25.55;12.93;;;;;;;6.31;64.33;100035.84;4875859;29;22498;-91
2020/12/13 00:12:26;;;;;;;21.65;12.02;;;;;;;7.10;65.15;100147.44;4879287;29;20048;-91
2020/12/13 00:14:52;;;;;;;24.27;12.80;;;;;;;6.87;64.67;100108.50;4881056;29;20103;-91
2020/12/13 00:17:18;;;;;;;25.85;13.15;;;;;;;4.63;64.37;99744.53;4881310;29;20473;-91
2020/12/13 00:19:45;;;;;;;21.52;11.75;;;;;;;3.02;64.04;99485.06;4872240;29;20068;-91
2020/12/13 00:22:11;;;;;;;22.38;12.48;;;;;;;5.70;64.52;99924.63;4876863;29;20108;-91
2020/12/13 00:24:38;;;;;;;22.55;11.35;;;;;;;4.06;64.26;99638.47;4879630;29;20112;-91
2020/12/13 00:27:04;;;;;;;24.30;12.98;;;;;;;6.82;64.57;100109.81;4880652;29;20476;-91
2020/12/13 00:29:32;;;;;;;26.20;13.48;;;;;;;6.84;64.49;100107.91;4882518;29;20136;-91
2020/12/13 00:31:58;;;;;;;22.73;11.38;;;;;;;5.46;64.87;99906.63;4881748;29;20492;-91
2020/12/13 00:34:24;;;;;;;22.38;12.45;;;;;;;6.92;64.57;100121.94;4877830;29;20567;-91
2020/12/13 00:36:52;;;;;;;25.10;12.82;;;;;;;7.18;64.54;100150.25;4879141;29;20044;-91
2020/12/13 00:39:18;;;;;;;24.90;12.98;;;;;;;6.72;64.60;100086.31;4880040;29;20155;-91
2020/12/13 00:41:49;;;;;;;21.98;12.30;;;;;;;5.79;64.43;99929.13;4894188;29;20096;-91
2020/12/13 00:44:16;;;;;;;22.67;12.50;;;;;;;6.81;65.11;100095.16;4880960;29;20140;-91
2020/12/13 00:46:42;;;;;;;23.58;12.43;;;;;;;7.17;64.87;100151.19;4880698;29;20107;-90
2020/12/13 00:49:08;;;;;;;22.15;12.00;;;;;;;6.37;64.79;100031.94;4883495;29;20048;-91
2020/12/13 00:51:34;;;;;;;23.10;12.55;;;;;;;6.33;64.16;100035.75;4884685;29;20056;-91
2020/12/13 00:54:00;;;;;;;26.67;12.40;;;;;;;5.01;64.55;99836.59;4880400;29;20056;-91
2020/12/13 00:56:26;;;;;;;21.52;12.05;;;;;;;5.04;64.25;99833.78;4878125;29;20140;-91
2020/12/13 00:58:53;;;;;;;23.23;12.75;;;;;;;7.17;65.19;100178.97;4879451;29;20564;-92
2020/12/13 01:01:19;;;;;;;23.75;12.23;;;;;;;6.78;64.40;100130.00;4882114;29;20139;-91
2020/12/13 01:03:46;;;;;;;23.10;12.70;;;;;;;7.08;64.46;100177.94;4872603;29;20088;-91
2020/12/13 01:06:23;;;;;;;23.00;11.70;;;;;;;7.29;64.64;100191.03;4899856;29;20080;-91
2020/12/13 01:08:51;;;;;;;22.73;12.25;;;;;;;6.55;64.62;100081.63;4889029;29;20112;-91
2020/12/13 01:11:24;;;;;;;22.10;12.23;;;;;;;5.33;64.35;99880.81;4884341;29;20150;-91
2020/12/13 01:13:51;;;;;;;21.10;11.60;;;;;;;6.94;64.93;100158.22;4881391;29;20111;-91
2020/12/13 01:16:18;;;;;;;25.00;13.13;;;;;;;4.88;64.52;99822.97;4883874;29;20103;-91
2020/12/13 01:18:44;;;;;;;25.25;13.30;;;;;;;6.96;64.39;100163.31;4880914;29;20060;-91
2020/12/13 01:21:24;;;;;;;24.90;12.68;;;;;;;7.21;64.65;100176.00;4880274;29;20080;-90
2020/12/13 01:23:54;;;;;;;20.88;11.07;;;;;;;7.20;64.67;100205.56;4894996;29;20084;-89
2020/12/13 01:26:22;;;;;;;21.15;11.85;;;;;;;6.84;64.49;100150.31;4879524;29;20156;-91
2020/12/13 01:28:48;;;;;;;25.25;13.05;;;;;;;6.96;64.91;100171.94;4879741;29;20049;-90
2020/12/13 01:31:16;;;;;;;24.20;11.73;;;;;;;5.64;64.34;99974.41;4899682;29;20111;-90
2020/12/13 01:33:44;;;;;;;23.40;12.10;;;;;;;3.27;64.38;99569.31;4879951;29;20052;-90
2020/12/13 01:36:22;;;;;;;23.67;13.02;;;;;;;5.40;64.20;99906.25;4882183;29;20572;-90
2020/12/13 01:38:50;;;;;;;25.45;12.05;;;;;;;7.02;64.51;100192.25;4904482;29;20052;-91
2020/12/13 01:41:16;;;;;;;23.05;12.35;;;;;;;6.55;64.94;100110.22;4880980;29;20068;-91
2020/12/13 01:44:03;;;;;;;23.55;12.55;;;;;;;7.10;64.40;100192.47;4895683;29;20053;-91
2020/12/13 01:46:31;;;;;;;19.83;10.85;;;;;;;5.07;64.14;99887.13;4882711;29;20143;-90
2020/12/13 01:49:04;;;;;;;26.13;13.23;;;;;;;5.74;64.54;99982.31;4895546;29;20063;-91
2020/12/13 01:54:46;;;;;;;21.98;11.43;;;;;;;6.83;64.44;100160.84;4824356;29;20060;-91
2020/12/13 01:57:15;;;;;;;24.77;12.85;;;;;;;5.10;64.30;99874.81;4869805;29;20076;-91
2020/12/13 01:59:43;;;;;;;21.42;11.75;;;;;;;7.08;64.59;100211.75;4893445;29;20066;-91
2020/12/13 02:02:15;;;;;;;22.20;12.07;;;;;;;6.97;64.58;100176.19;4880885;29;20056;-92
2020/12/13 02:04:43;;;;;;;25.52;12.85;;;;;;;3.90;64.49;99709.44;4881332;29;20265;-91
2020/12/13 02:07:10;;;;;;;23.45;12.50;;;;;;;6.92;64.54;100183.50;4879666;29;20476;-91
2020/12/13 02:09:36;;;;;;;22.58;12.90;;;;;;;5.20;64.24;99897.41;4883586;29;20059;-90
2020/12/13 02:12:02;;;;;;;21.73;11.43;;;;;;;7.04;65.02;100195.56;4875679;29;20191;-91
2020/12/13 02:14:28;;;;;;;22.85;12.40;;;;;;;6.53;64.32;100128.50;4878101;29;20049;-91
2020/12/13 02:16:55;;;;;;;23.65;12.15;;;;;;;7.00;64.90;100198.50;4878720;29;20044;-91
2020/12/13 02:19:21;;;;;;;23.65;12.27;;;;;;;6.66;64.60;100154.38;4883254;29;20059;-91
2020/12/13 02:21:50;;;;;;;21.85;11.95;;;;;;;6.91;64.60;100187.06;4896521;29;20144;-91
2020/12/13 02:24:17;;;;;;;23.67;12.48;;;;;;;6.86;64.61;100190.03;4877820;29;20053;-92
2020/12/13 02:26:45;;;;;;;22.63;12.60;;;;;;;5.11;64.58;99904.94;4901779;29;20225;-91
2020/12/13 02:29:12;;;;;;;22.17;11.85;;;;;;;6.42;64.33;100121.53;4892898;29;20936;-91
2020/12/13 02:31:39;;;;;;;23.38;11.88;;;;;;;6.99;64.86;100218.50;4887069;29;20091;-91
2020/12/13 02:34:06;;;;;;;22.63;12.35;;;;;;;7.10;64.40;100225.47;4882530;29;20060;-91
2020/12/13 02:36:33;;;;;;;21.45;11.27;;;;;;;5.07;63.70;99900.94;4886597;29;20049;-91
2020/12/13 02:39:01;;;;;;;18.83;11.32;;;;;;;6.70;64.55;100166.16;4876355;29;20056;-91
2020/12/13 02:41:27;;;;;;;21.20;12.20;;;;;;;5.19;64.63;99929.47;4884847;29;20060;-91
2020/12/13 02:43:53;;;;;;;19.50;10.70;;;;;;;6.83;64.28;100194.63;4891537;29;20127;-92
2020/12/13 02:46:19;;;;;;;21.23;11.30;;;;;;;6.81;64.78;100202.53;4884337;29;20100;-91
2020/12/13 02:48:46;;;;;;;21.55;11.52;;;;;;;6.46;64.53;100151.56;4880218;29;20052;-91
2020/12/13 02:51:12;;;;;;;20.38;11.10;;;;;;;6.48;64.49;100149.66;4879311;29;20131;-92
2020/12/13 02:53:38;;;;;;;22.27;11.48;;;;;;;6.93;64.17;100227.59;4878554;29;20138;-91
2020/12/13 02:56:04;;;;;;;23.52;12.20;;;;;;;5.05;64.49;99920.13;4896044;29;20104;-92
2020/12/13 02:58:30;;;;;;;21.45;11.88;;;;;;;7.09;64.42;100250.59;4879305;29;20079;-92
2020/12/13 03:00:56;;;;;;;20.60;10.82;;;;;;;6.74;64.38;100206.59;4881207;29;20056;-92
2020/12/13 03:03:23;;;;;;;22.02;11.88;;;;;;;7.10;64.93;100259.25;4894152;29;20453;-91
2020/12/13 03:05:51;;;;;;;21.75;11.90;;;;;;;7.09;64.53;100266.22;4882284;29;20080;-91
2020/12/13 03:08:17;;;;;;;22.00;11.98;;;;;;;6.66;64.27;100204.56;4878511;29;20069;-92
2020/12/13 03:10:43;;;;;;;22.23;11.60;;;;;;;7.11;64.33;100266.09;4897787;29;20044;-91
2020/12/13 03:13:09;;;;;;;21.02;11.70;;;;;;;6.74;64.40;100208.34;4896532;29;20135;-91
2020/12/13 03:15:35;;;;;;;22.52;11.90;;;;;;;6.50;64.34;100177.28;4880491;29;20061;-92
2020/12/13 03:18:01;;;;;;;24.20;12.20;;;;;;;5.12;64.62;99961.00;4876487;29;20052;-92
2020/12/13 03:20:27;;;;;;;23.63;12.90;;;;;;;6.88;64.31;100242.72;4900459;29;20076;-91
2020/12/13 03:22:53;;;;;;;21.50;11.70;;;;;;;5.09;64.23;99953.47;4894849;29;20052;-92
2020/12/13 03:25:19;;;;;;;22.48;11.68;;;;;;;4.86;63.67;99925.88;4890737;29;20056;-91
2020/12/13 03:27:45;;;;;;;22.30;11.50;;;;;;;5.71;64.11;100049.97;4881762;29;20048;-91
2020/12/13 03:30:11;;;;;;;20.50;11.63;;;;;;;5.41;64.25;100011.66;4880992;29;20054;-91
2020/12/13 03:32:38;;;;;;;19.73;11.85;;;;;;;6.71;64.90;100219.81;4864904;29;20198;-91
2020/12/13 03:35:05;;;;;;;18.20;11.20;;;;;;;6.74;64.68;100227.38;4866499;29;20503;-91
2020/12/13 03:37:31;;;;;;;19.80;11.55;;;;;;;6.79;64.27;100232.19;4847779;29;20097;-92
2020/12/13 03:39:58;;;;;;;21.15;10.98;;;;;;;6.72;64.36;100212.84;4878523;29;20053;-91
2020/12/13 03:42:25;;;;;;;18.35;10.65;;;;;;;5.23;64.46;99977.53;4841879;29;20053;-91
2020/12/13 03:44:51;;;;;;;19.08;10.60;;;;;;;6.90;64.06;100260.78;4875888;29;20102;-91
2020/12/13 03:47:17;;;;;;;22.80;12.10;;;;;;;3.20;63.97;99649.97;4880145;29;20109;-90
2020/12/13 03:49:43;;;;;;;20.95;11.40;;;;;;;5.53;64.30;100029.69;4869239;29;20044;-91
2020/12/13 03:52:09;;;;;;;20.67;11.52;;;;;;;3.93;63.92;99791.16;4865786;29;20156;-92
2020/12/13 03:54:35;;;;;;;19.38;11.88;;;;;;;5.45;64.41;100023.44;4881162;29;20553;-91
2020/12/13 03:57:01;;;;;;;20.23;10.60;;;;;;;3.94;64.05;99785.91;4866042;29;20097;-92
2020/12/13 03:59:27;;;;;;;21.23;11.45;;;;;;;6.41;64.20;100197.81;4866757;29;20500;-92
2020/12/13 04:01:53;;;;;;;21.65;11.77;;;;;;;7.02;64.48;100304.03;4874733;29;20117;-91
2020/12/13 04:04:20;;;;;;;21.13;11.95;;;;;;;4.74;64.46;99924.16;4865394;29;20080;-90
2020/12/13 04:06:46;;;;;;;18.27;11.45;;;;;;;5.00;64.25;99967.13;4868456;29;21142;-90
2020/12/13 04:09:12;;;;;;;19.58;10.70;;;;;;;4.19;63.70;99838.44;4877594;29;20053;-90
2020/12/13 04:11:38;;;;;;;20.52;11.10;;;;;;;6.73;64.42;100264.69;4866236;29;20113;-91
2020/12/13 04:14:04;;;;;;;22.17;11.27;;;;;;;6.71;64.28;100258.78;4863202;29;20105;-90
2020/12/13 04:16:30;;;;;;;21.90;10.95;;;;;;;3.23;63.75;99722.09;4881703;29;20052;-91
2020/12/13 04:18:57;;;;;;;20.25;10.82;;;;;;;6.95;64.11;100296.84;4864606;29;20120;-90
2020/12/13 04:21:25;;;;;;;20.25;11.38;;;;;;;6.69;64.81;100255.47;4866355;29;20431;-90
2020/12/13 04:23:51;;;;;;;21.20;11.65;;;;;;;6.42;64.53;100233.25;4866862;29;20052;-90
2020/12/13 04:26:17;;;;;;;21.92;11.70;;;;;;;6.79;64.61;100282.44;4874033;29;20115;-90
2020/12/13 04:28:44;;;;;;;21.42;11.68;;;;;;;6.84;64.24;100284.66;4877826;29;20555;-91
2020/12/13 04:31:10;;;;;;;22.17;11.90;;;;;;;5.32;64.14;100045.09;4872265;29;20137;-90
2020/12/13 04:33:36;;;;;;;21.50;10.88;;;;;;;6.14;64.23;100186.94;4876768;29;20470;-90
2020/12/13 04:36:05;;;;;;;22.67;11.63;;;;;;;4.94;63.87;99983.13;4883378;29;20057;-90
2020/12/13 04:38:31;;;;;;;20.00;11.40;;;;;;;5.51;64.53;100086.03;4880666;29;20068;-91
2020/12/13 04:40:59;;;;;;;23.52;12.05;;;;;;;5.58;63.95;100089.00;4877910;29;20057;-91
2020/12/13 04:43:26;;;;;;;24.60;12.68;;;;;;;5.49;64.26;100094.88;4877881;29;20140;-90
2020/12/13 04:45:52;;;;;;;23.05;11.90;;;;;;;5.01;64.08;100020.59;4878439;29;20095;-90
2020/12/13 04:48:19;;;;;;;26.20;13.30;;;;;;;6.78;64.58;100306.75;4878293;29;20481;-91
2020/12/13 04:50:49;;;;;;;22.95;11.68;;;;;;;2.33;64.01;99587.22;4893222;29;20516;-90
2020/12/13 04:53:16;;;;;;;21.65;12.07;;;;;;;6.34;64.26;100233.00;4878410;29;20056;-91
2020/12/13 04:55:54;;;;;;;25.33;13.70;;;;;;;6.99;64.83;100314.69;4882333;29;20053;-90
2020/12/13 04:58:22;;;;;;;26.45;13.55;;;;;;;7.03;64.44;100343.88;4875850;29;20059;-90
2020/12/13 05:00:57;;;;;;;24.98;13.07;;;;;;;7.12;64.44;100337.97;4877543;29;20052;-90
2020/12/13 05:03:24;;;;;;;23.33;12.77;;;;;;;3.11;64.24;99736.69;4877784;29;20398;-91
2020/12/13 05:05:57;;;;;;;22.55;12.07;;;;;;;6.70;64.82;100296.91;4879235;29;20105;-88
2020/12/13 05:08:31;;;;;;;25.13;13.02;;;;;;;4.44;64.22;99933.25;4882839;29;20072;-90
2020/12/13 05:10:58;;;;;;;25.63;12.88;;;;;;;4.94;64.32;100029.75;4878618;29;20057;-91
2020/12/13 05:13:24;;;;;;;27.15;13.93;;;;;;;6.59;64.97;100306.47;4874795;29;20109;-90
2020/12/13 05:15:52;;;;;;;26.65;13.68;;;;;;;6.61;65.19;100302.81;4879048;29;20493;-90
2020/12/13 05:18:18;;;;;;;29.40;14.88;;;;;;;6.96;65.00;100364.31;4877747;29;20064;-90
2020/12/13 05:20:44;;;;;;;27.80;13.18;;;;;;;2.73;64.47;99688.53;4877457;29;20060;-89
2020/12/13 05:23:11;;;;;;;24.25;13.13;;;;;;;4.90;64.73;100039.53;4879425;29;20057;-89
2020/12/13 05:25:38;;;;;;;24.48;12.70;;;;;;;6.97;64.76;100367.75;4883721;29;20489;-91
2020/12/13 05:28:07;;;;;;;26.67;14.40;;;;;;;6.98;64.84;100379.78;4875120;29;20060;-91
2020/12/13 05:30:37;;;;;;;25.65;13.30;;;;;;;5.52;64.86;100146.53;4876683;29;20060;-91
2020/12/13 05:33:15;;;;;;;25.42;13.35;;;;;;;6.87;65.17;100345.06;4890807;29;20451;-91
2020/12/13 05:35:41;;;;;;;25.38;13.23;;;;;;;4.89;64.54;100044.81;4883496;29;20045;-91
2020/12/13 05:38:10;;;;;;;27.52;14.27;;;;;;;4.31;65.07;99963.53;4875661;29;20111;-89
2020/12/13 05:40:36;;;;;;;23.25;12.45;;;;;;;6.29;65.21;100263.69;4875539;29;20247;-91
2020/12/13 05:43:11;;;;;;;26.35;14.20;;;;;;;5.78;64.87;100189.53;4877995;29;20136;-89
2020/12/13 05:53:17;;;;;;;26.00;13.15;;;;;;;6.91;65.27;100362.06;4875737;29;20096;-91
2020/12/13 05:55:46;;;;;;;26.30;12.55;;;;;;;5.44;65.25;100133.28;4874256;29;20545;-91
2020/12/13 05:58:13;;;;;;;22.85;13.00;;;;;;;6.45;64.78;100300.53;4880000;29;20048;-91
2020/12/13 06:00:40;;;;;;;26.02;12.95;;;;;;;4.84;64.77;100031.34;4876745;29;20048;-91
2020/12/13 06:03:10;;;;;;;23.33;12.02;;;;;;;7.05;64.92;100376.63;4885587;29;20906;-91
2020/12/13 06:05:41;;;;;;;20.92;11.88;;;;;;;4.66;64.79;99997.28;4876831;29;20501;-91
2020/12/13 06:08:13;;;;;;;23.10;12.30;;;;;;;7.04;65.15;100374.97;4878049;29;20051;-91
2020/12/13 06:10:42;;;;;;;19.73;11.52;;;;;;;6.84;65.46;100360.84;4877371;29;20057;-91
2020/12/13 06:13:18;;;;;;;26.88;13.35;;;;;;;5.33;64.70;100098.59;4876571;29;20064;-91
2020/12/13 06:15:47;;;;;;;18.60;10.75;;;;;;;6.77;64.82;100361.44;4878527;29;20056;-91
2020/12/13 06:18:13;;;;;;;23.02;12.40;;;;;;;6.46;65.36;100296.19;4873932;29;20082;-91
2020/12/13 06:20:41;;;;;;;22.00;12.15;;;;;;;4.95;65.15;100062.50;4877876;29;20064;-91
2020/12/13 06:23:08;;;;;;;21.67;11.85;;;;;;;6.42;65.29;100303.38;4878866;29;20053;-91
2020/12/13 06:25:34;;;;;;;21.98;12.07;;;;;;;3.88;64.57;99894.13;4880843;29;20053;-91
2020/12/13 06:28:04;;;;;;;19.85;11.35;;;;;;;6.88;65.38;100377.88;4875285;29;20113;-90
2020/12/13 06:30:30;;;;;;;21.98;12.02;;;;;;;4.83;64.94;100042.66;4874258;29;20568;-90
2020/12/13 06:32:58;;;;;;;22.55;12.35;;;;;;;6.90;65.31;100373.41;4876433;29;20057;-91
2020/12/13 06:35:24;;;;;;;23.92;12.07;;;;;;;6.70;64.89;100351.50;4879815;29;20053;-91
2020/12/13 06:37:50;;;;;;;24.55;12.20;;;;;;;6.38;65.10;100306.31;4875866;29;20063;-91
2020/12/13 06:40:20;;;;;;;22.38;12.40;;;;;;;6.95;65.06;100382.63;4871810;29;20136;-91
2020/12/13 06:42:48;;;;;;;23.92;12.25;;;;;;;6.71;nan;100362.75;4874992;29;20053;-91
2020/12/13 06:45:16;;;;;;;21.45;12.93;;;;;;;6.26;64.81;100279.47;4879995;29;20060;-91
2020/12/13 06:47:45;;;;;;;26.58;13.63;;;;;;;4.93;65.31;100105.81;4881861;29;20044;-91
2020/12/13 06:50:23;;;;;;;22.83;11.45;;;;;;;4.55;64.95;100017.94;4876055;29;20053;-91
2020/12/13 06:52:51;;;;;;;23.23;12.48;;;;;;;6.48;65.44;100330.66;4870728;29;20140;-91
2020/12/13 06:55:18;;;;;;;23.73;12.50;;;;;;;6.28;65.22;100306.16;4875157;29;20159;-91
2020/12/13 06:57:49;;;;;;;23.70;12.50;;;;;;;6.99;65.61;100407.47;4880879;29;20056;-91
2020/12/13 07:00:15;;;;;;;24.52;12.27;;;;;;;5.24;64.89;100156.31;4876730;29;20136;-91
2020/12/13 07:02:55;;;;;;;21.17;11.85;;;;;;;6.20;65.59;100303.31;4881213;29;20072;-91
2020/12/13 07:05:42;;;;;;;23.40;11.93;;;;;;;6.97;65.83;100407.56;4881533;29;20056;-90
2020/12/13 07:08:12;;;;;;;24.40;12.23;;;;;;;6.91;65.73;100401.06;4882357;29;20183;-90
2020/12/13 07:10:44;;;;;;;22.02;12.43;;;;;;;4.71;65.14;100085.81;4883772;29;20519;-91
2020/12/13 07:13:18;;;;;;;22.38;12.10;;;;;;;6.90;66.02;100403.75;4880938;29;20063;-91
2020/12/13 07:16:05;;;;;;;24.50;12.10;;;;;;;6.88;65.96;100393.50;4880280;29;20079;-91
2020/12/13 07:18:32;;;;;;;20.55;11.75;;;;;;;5.55;65.08;100191.22;4879048;29;20060;-91
2020/12/13 07:20:58;;;;;;;25.65;12.73;;;;;;;5.61;65.28;100215.06;4883505;29;20508;-92
2020/12/13 07:23:26;;;;;;;23.33;12.65;;;;;;;3.72;65.36;99902.97;4897438;29;20132;-89
2020/12/13 07:25:53;;;;;;;23.90;11.85;;;;;;;5.48;65.45;100204.72;4880888;29;20056;-89
2020/12/13 07:28:21;;;;;;;23.45;12.57;;;;;;;6.75;65.90;100405.72;4877449;29;20135;-90
2020/12/13 07:30:48;;;;;;;24.40;12.07;;;;;;;6.77;66.09;100403.03;4884113;29;20140;-90
2020/12/13 07:33:14;;;;;;;20.95;11.35;;;;;;;6.86;65.85;100418.75;4879974;29;20114;-90
2020/12/13 07:35:41;;;;;;;23.15;12.38;;;;;;;6.76;65.61;100404.81;4896951;29;20048;-90
2020/12/13 07:38:09;;;;;;;21.67;11.48;;;;;;;4.30;65.44;100009.31;4880294;29;20080;-89
2020/12/13 07:40:35;;;;;;;22.15;11.80;;;;;;;5.01;65.77;100124.25;4885185;29;20172;-90
2020/12/13 07:43:02;;;;;;;20.17;11.13;;;;;;;4.60;65.57;100060.69;4882690;29;20056;-90
2020/12/13 07:45:28;;;;;;;22.25;12.55;;;;;;;6.75;65.71;100416.13;4883906;29;20484;-90
2020/12/13 07:48:02;;;;;;;22.52;11.63;;;;;;;4.07;65.61;99987.63;4882922;29;20140;-90
2020/12/13 07:50:47;;;;;;;23.65;12.10;;;;;;;3.28;65.12;99844.84;4882710;29;20112;-90
2020/12/13 07:53:24;;;;;;;23.70;11.80;;;;;;;4.89;65.36;100133.72;4882764;29;20175;-91
2020/12/13 07:55:51;;;;;;;22.10;11.95;;;;;;;4.44;65.67;100053.16;4885760;29;20516;-91
2020/12/13 07:58:19;;;;;;;20.25;11.75;;;;;;;2.99;65.45;99815.84;4899463;29;20072;-90
2020/12/13 08:00:46;;;;;;;20.63;10.85;;;;;;;6.34;66.08;100399.19;4881509;29;20056;-91
2020/12/13 08:03:13;;;;;;;21.70;10.52;;;;;;;5.08;65.64;100161.75;4883922;29;20052;-92
2020/12/13 08:05:44;;;;;;;21.13;11.32;;;;;;;6.79;66.03;100440.13;4880365;29;20124;-91
2020/12/13 08:08:10;;;;;;;21.40;11.40;;;;;;;5.00;65.66;100153.69;4875258;29;20049;-91
2020/12/13 08:10:36;;;;;;;17.70;10.15;;;;;;;6.29;66.24;100351.13;4879783;29;20164;-91
2020/12/13 08:13:07;;;;;;;21.02;11.15;;;;;;;6.30;65.85;100353.63;4894384;29;20060;-91
2020/12/13 08:15:33;;;;;;;18.80;10.35;;;;;;;5.09;66.01;100162.56;4880591;29;20143;-91
2020/12/13 08:17:59;;;;;;;20.58;10.95;;;;;;;7.04;66.43;100472.91;4875562;29;20512;-91
2020/12/13 08:20:29;;;;;;;19.23;10.38;;;;;;;6.74;65.99;100432.69;4880926;29;20128;-90
2020/12/13 08:22:59;;;;;;;22.65;11.10;;;;;;;6.83;66.29;100442.38;4877731;29;20053;-91
2020/12/13 08:25:25;;;;;;;17.27;10.13;;;;;;;6.45;66.14;100406.22;4879701;29;20560;-91
2020/12/13 08:27:57;;;;;;;20.05;10.95;;;;;;;5.46;65.81;100223.00;4878933;29;20052;-91
2020/12/13 08:30:24;;;;;;;22.30;11.10;;;;;;;7.08;66.13;100472.59;4873045;29;20061;-92
2020/12/13 08:32:55;;;;;;;18.73;10.15;;;;;;;4.61;65.90;100111.53;4879946;29;20059;-91
2020/12/13 08:35:21;;;;;;;19.90;10.77;;;;;;;6.80;66.37;100447.81;4880010;29;20057;-91
2020/12/13 08:37:55;;;;;;;19.60;10.70;;;;;;;5.23;65.88;100165.00;4873892;29;20084;-91
2020/12/13 08:40:36;;;;;;;;;;;;;;;7.28;65.67;100481.50;4872337;29;20061;-91
2020/12/13 08:43:03;;;;;;;17.27;9.43;;;;;;;6.31;66.03;100373.47;4876324;29;19927;-92
2020/12/13 08:45:30;;;;;;;20.33;10.10;;;;;;;6.97;65.30;100471.75;4881304;29;20056;-90
2020/12/13 08:48:07;;;;;;;19.50;10.75;;;;;;;6.62;66.42;100424.03;4869429;29;20053;-89
2020/12/13 08:50:42;;;;;;;16.88;10.15;;;;;;;6.31;66.19;100391.63;4876916;29;20052;-90
2020/12/13 08:53:22;;;;;;;18.27;10.38;;;;;;;4.73;65.88;100104.66;4874841;29;20057;-90
2020/12/13 08:56:08;;;;;;;17.27;9.95;;;;;;;7.26;66.51;100516.38;4874834;29;20152;-89
2020/12/13 08:58:52;;;;;;;18.92;9.90;;;;;;;7.06;66.61;100495.28;4873637;29;20056;-91
2020/12/13 09:01:24;;;;;;;18.00;9.50;;;;;;;6.88;66.20;100494.88;4875479;29;20056;-91
2020/12/13 09:03:51;;;;;;;17.27;9.75;;;;;;;6.22;66.36;100392.31;4874132;29;20060;-92
2020/12/13 09:06:27;;;;;;;20.45;11.32;;;;;;;7.20;66.33;100516.81;4877241;29;20084;-91
2020/12/13 09:08:53;;;;;;;;;;;;;;;7.34;65.53;100527.88;4876913;29;20056;-91
2020/12/13 09:11:30;;;;;;;15.45;9.25;;;;;;;5.30;65.92;100202.53;4878386;29;19927;-91
2020/12/13 09:13:56;;;;;;;17.33;9.48;;;;;;;4.56;66.66;100115.38;4873513;29;20457;-91
2020/12/13 09:16:27;;;;;;;18.77;10.18;;;;;;;3.21;65.66;99889.28;4872221;29;20061;-90
2020/12/13 09:19:13;;;;;;;19.70;10.77;;;;;;;7.33;66.34;100533.19;4875184;29;20085;-91
2020/12/13 09:21:49;;;;;;;21.30;10.88;;;;;;;7.08;66.28;100506.41;4872054;29;20371;-91
2020/12/13 09:24:19;;;;;;;18.33;10.27;;;;;;;7.16;66.24;100539.63;4878293;29;20056;-91
2020/12/13 09:27:09;;;;;;;22.75;11.85;;;;;;;6.74;66.17;100445.66;4875479;29;20071;-91
2020/12/13 09:29:38;;;;;;;20.83;10.85;;;;;;;7.01;66.39;100512.16;4876195;29;20053;-90
2020/12/13 09:32:07;;;;;;;21.38;10.52;;;;;;;5.72;66.53;100304.13;4879405;29;20076;-90
2020/12/13 09:34:33;;;;;;;23.60;12.93;;;;;;;5.13;66.19;100219.28;4894249;29;20057;-90
2020/12/13 09:36:59;;;;;;;24.38;12.68;;;;;;;6.97;66.93;100515.94;4880667;29;20058;-91
2020/12/13 09:39:30;;;;;;;21.92;10.98;;;;;;;4.50;66.31;100124.41;4876372;29;20057;-90
2020/12/13 09:41:57;;;;;;;22.45;10.77;;;;;;;7.20;66.50;100561.88;4876999;29;20063;-90
2020/12/13 09:44:24;;;;;;;22.50;11.65;;;;;;;5.21;66.50;100246.41;4890138;29;20049;-90
2020/12/13 09:46:57;;;;;;;22.65;11.95;;;;;;;7.08;66.88;100537.59;4879938;29;20168;-90
2020/12/13 09:49:27;;;;;;;22.55;12.15;;;;;;;7.23;66.75;100566.00;4899480;29;20048;-90
2020/12/13 09:51:58;;;;;;;24.65;12.55;;;;;;;7.21;67.06;100553.16;4873475;29;20460;-90
2020/12/13 09:54:26;;;;;;;22.52;12.35;;;;;;;7.24;66.65;100563.31;4874596;29;20056;-90
2020/12/13 09:56:52;;;;;;;25.08;12.75;;;;;;;7.11;66.64;100537.38;4886037;29;20047;-90
2020/12/13 09:59:18;;;;;;;25.67;13.00;;;;;;;4.24;66.40;100118.44;4882234;29;20378;-90
2020/12/13 10:01:45;;;;;;;23.58;11.63;;;;;;;7.24;66.53;100555.50;4885097;29;20155;-89
2020/12/13 10:04:12;;;;;;;24.25;12.20;;;;;;;6.86;66.84;100501.13;4897805;29;20057;-90
2020/12/13 10:09:15;;;;;;;23.67;12.82;;;;;;;6.75;66.84;100488.91;4893648;29;20057;-91
2020/12/13 10:11:43;;;;;;;26.30;13.70;;;;;;;6.85;66.92;100482.09;4877190;29;20052;-91
2020/12/13 10:14:13;;;;;;;24.15;12.30;;;;;;;7.10;66.86;100524.50;4882394;29;20078;-91
2020/12/13 10:16:42;;;;;;;27.45;13.63;;;;;;;6.11;66.78;100368.91;4878064;29;20460;-89
2020/12/13 10:19:09;;;;;;;24.10;12.68;;;;;;;5.18;66.52;100218.94;4886193;29;20055;-91
2020/12/13 10:21:36;;;;;;;27.30;12.75;;;;;;;7.27;66.59;100552.69;4882771;29;20103;-90
2020/12/13 10:24:04;;;;;;;24.95;12.20;;;;;;;6.84;66.88;100471.81;4876253;29;20113;-91
2020/12/13 10:26:32;;;;;;;29.55;13.98;;;;;;;5.54;66.54;100256.16;4885734;29;20083;-91
2020/12/13 10:29:01;;;;;;;26.95;13.30;;;;;;;7.09;67.02;100528.03;4875322;29;20140;-91
2020/12/13 10:31:31;;;;;;;24.13;12.38;;;;;;;7.38;66.85;100557.09;4881814;29;20061;-89
2020/12/13 10:33:57;;;;;;;28.13;13.77;;;;;;;7.12;66.89;100531.25;4888998;29;20056;-91
2020/12/13 10:36:24;;;;;;;27.63;13.20;;;;;;;7.36;67.14;100559.78;4875063;29;20144;-91
2020/12/13 10:38:51;;;;;;;24.48;12.85;;;;;;;4.73;66.57;100145.28;4895793;29;20195;-92
2020/12/13 10:41:19;;;;;;;27.80;14.23;;;;;;;5.78;66.70;100323.63;4876934;29;20492;-91
2020/12/13 10:43:46;;;;;;;25.00;12.52;;;;;;;5.66;66.41;100290.78;4881085;29;20087;-91
2020/12/13 10:46:13;;;;;;;26.20;13.30;;;;;;;7.19;66.95;100536.00;4882774;29;20092;-91
2020/12/13 10:48:39;;;;;;;27.15;12.95;;;;;;;7.42;66.67;100570.69;4887357;29;20049;-91
2020/12/13 10:51:05;;;;;;;25.65;13.05;;;;;;;6.30;66.80;100399.56;4882720;29;20461;-92
2020/12/13 10:53:32;;;;;;;27.10;12.10;;;;;;;7.41;67.17;100577.69;4900392;29;20056;-92
2020/12/13 10:55:58;;;;;;;26.05;12.90;;;;;;;4.36;66.38;100072.75;4883468;29;20104;-91
2020/12/13 10:58:24;;;;;;;24.70;13.15;;;;;;;3.66;66.68;99970.63;4881861;29;20087;-91
2020/12/13 11:00:51;;;;;;;23.85;12.57;;;;;;;6.55;67.06;100425.41;4879965;29;20120;-92
2020/12/13 11:03:17;;;;;;;29.88;13.57;;;;;;;7.48;67.11;100557.22;4897694;29;20056;-91
2020/12/13 11:05:44;;;;;;;25.02;13.32;;;;;;;7.36;66.89;100538.97;4880571;29;20137;-92
2020/12/13 11:08:11;;;;;;;25.30;12.90;;;;;;;5.97;66.86;100321.38;4877740;29;20040;-91
2020/12/13 11:10:37;;;;;;;25.77;13.10;;;;;;;4.61;66.91;100096.00;4896240;29;20478;-91
2020/12/13 11:13:04;;;;;;;28.50;13.13;;;;;;;7.49;67.02;100556.28;4885293;29;20496;-89
2020/12/13 11:15:30;;;;;;;31.73;13.60;;;;;;;3.97;66.85;99965.94;4878427;29;20088;-90
2020/12/13 11:17:56;;;;;;;29.00;13.05;;;;;;;7.13;66.94;100493.06;4881716;29;20053;-91
2020/12/13 11:20:22;;;;;;;28.85;12.95;;;;;;;5.82;66.87;100276.59;4879588;29;20200;-90
2020/12/13 11:22:48;;;;;;;28.63;13.75;;;;;;;5.56;66.75;100236.94;4879933;29;20063;-90
2020/12/13 11:25:16;;;;;;;26.95;13.55;;;;;;;5.59;67.07;100246.28;4881195;29;20045;-89
2020/12/13 11:27:43;;;;;;;26.88;12.57;;;;;;;7.56;67.25;100560.06;4893040;29;20045;-89
2020/12/13 11:30:10;;;;;;;28.65;13.65;;;;;;;7.30;66.84;100510.84;4878359;29;20057;-90
2020/12/13 11:32:37;;;;;;;30.10;13.02;;;;;;;7.04;67.22;100475.53;4896167;29;20086;-90
2020/12/13 11:35:04;;;;;;;27.65;12.43;;;;;;;7.22;67.51;100494.13;4896249;29;20053;-89
2020/12/13 11:37:31;;;;;;;27.83;13.70;;;;;;;3.30;66.21;99879.16;4877163;29;20071;-90